createdAt,value
2023-03-19T00:04:59.798Z,212766.00
2023-03-19T00:11:10.325Z,212706.00
2023-03-19T00:17:12.827Z,212666.00
2023-03-19T00:23:15.203Z,212638.00
2023-03-19T00:29:17.619Z,212588.00
2023-03-19T00:35:19.949Z,212521.00
2023-03-19T00:41:23.104Z,212427.00
2023-03-19T00:47:25.728Z,212379.00
2023-03-19T00:53:27.816Z,212337.00
2023-03-19T00:59:30.750Z,212310.00
2023-03-19T01:05:35.352Z,212262.00
2023-03-19T01:11:37.790Z,212203.00
2023-03-19T01:17:40.124Z,212182.00
2023-03-19T01:23:42.425Z,212148.00
2023-03-19T01:29:44.773Z,212120.00
2023-03-19T01:35:52.834Z,212106.00
2023-03-19T01:42:02.127Z,212078.00
2023-03-19T01:48:39.946Z,212058.00
2023-03-19T01:54:46.929Z,212045.00
2023-03-19T02:01:04.884Z,212025.00
2023-03-19T02:07:11.526Z,212017.00
2023-03-19T02:13:14.888Z,212031.00
2023-03-19T02:19:29.137Z,212086.00
2023-03-19T02:25:40.127Z,212182.00
2023-03-19T02:31:42.592Z,212284.00
2023-03-19T02:37:45.030Z,212357.00
2023-03-19T02:43:47.466Z,212427.00
2023-03-19T02:49:49.850Z,212468.00
2023-03-19T02:55:52.500Z,212455.00
2023-03-19T03:01:55.088Z,212427.00
2023-03-19T03:07:57.387Z,212427.00
2023-03-19T03:13:59.648Z,212421.00
2023-03-19T03:20:02.502Z,212427.00
2023-03-19T03:26:05.300Z,212427.00
2023-03-19T03:32:08.262Z,212399.00
2023-03-19T03:38:10.493Z,212351.00
2023-03-19T03:44:12.932Z,212284.00
2023-03-19T03:50:17.464Z,212209.00
2023-03-19T03:56:21.945Z,212148.00
2023-03-19T04:02:25.594Z,212086.00
2023-03-19T04:08:27.878Z,212017.00
2023-03-19T04:14:30.442Z,216060.00
2023-03-19T04:20:33.347Z,216020.00
2023-03-19T04:26:36.600Z,215993.00
2023-03-19T04:32:39.231Z,215993.00
2023-03-19T04:38:42.798Z,216018.00
2023-03-19T04:44:45.051Z,212017.00
2023-03-19T04:50:52.197Z,212140.00
2023-03-19T04:56:55.547Z,212316.00
2023-03-19T05:03:01.234Z,212535.00
2023-03-19T05:09:07.893Z,213125.00
2023-03-19T05:15:10.736Z,215154.00
2023-03-19T05:21:32.370Z,216472.00
2023-03-19T05:27:35.206Z,217362.00
2023-03-19T05:33:40.768Z,218160.00
2023-03-19T05:39:43.785Z,219119.00
2023-03-19T05:45:50.435Z,219733.00
2023-03-19T05:51:57.146Z,220101.00
2023-03-19T05:57:59.521Z,220704.00
2023-03-19T06:04:04.898Z,221009.00
2023-03-19T06:10:09.032Z,220607.00
2023-03-19T06:16:12.377Z,221573.00
2023-03-19T06:22:20.963Z,221917.00
2023-03-19T06:28:23.955Z,221882.00
2023-03-19T06:34:26.992Z,221098.00
2023-03-19T06:40:29.545Z,221888.00
2023-03-19T06:46:31.751Z,222324.00
2023-03-19T06:52:34.026Z,220579.00
2023-03-19T06:58:36.773Z,218802.00
2023-03-19T07:04:39.148Z,217716.00
2023-03-19T07:10:41.605Z,217746.00
2023-03-19T07:16:43.948Z,219054.00
2023-03-19T07:22:46.441Z,222045.00
2023-03-19T07:28:48.893Z,223040.00
2023-03-19T07:34:51.417Z,223814.00
2023-03-19T07:41:01.863Z,223882.00
2023-03-19T07:47:06.841Z,223792.00
2023-03-19T07:53:10.415Z,224137.00
2023-03-19T07:59:12.924Z,223593.00
2023-03-19T08:05:15.206Z,223852.00
2023-03-19T08:11:17.765Z,224355.00
2023-03-19T08:17:20.055Z,224592.00
2023-03-19T08:23:22.558Z,224457.00
2023-03-19T08:29:27.485Z,225051.00
2023-03-19T08:35:29.853Z,224879.00
2023-03-19T08:41:32.019Z,224780.00
2023-03-19T08:47:34.216Z,225438.00
2023-03-19T08:53:37.569Z,224871.00
2023-03-19T08:59:39.999Z,224954.00
2023-03-19T09:05:42.078Z,224339.00
2023-03-19T09:11:44.211Z,224616.00
2023-03-19T09:17:46.511Z,224495.00
2023-03-19T09:23:48.876Z,224285.00
2023-03-19T09:29:51.136Z,224435.00
2023-03-19T09:35:54.467Z,224616.00
2023-03-19T09:42:04.845Z,224562.00
2023-03-19T09:48:12.994Z,224600.00
2023-03-19T09:54:33.944Z,224285.00
2023-03-19T10:00:38.606Z,224425.00
2023-03-19T10:06:41.477Z,223932.00
2023-03-19T10:12:43.572Z,223657.00
2023-03-19T10:18:50.577Z,223388.00
2023-03-19T10:24:56.970Z,223561.00
2023-03-19T10:31:06.124Z,223717.00
2023-03-19T10:37:17.778Z,223628.00
2023-03-19T10:43:26.257Z,224016.00
2023-03-19T10:49:28.633Z,223172.00
2023-03-19T10:55:32.354Z,223755.00
2023-03-19T11:01:39.889Z,223693.00
2023-03-19T11:07:41.933Z,224376.00
2023-03-19T11:13:47.618Z,223693.00
2023-03-19T11:19:59.896Z,223978.00
2023-03-19T11:26:02.159Z,224750.00
2023-03-19T11:32:21.159Z,224734.00
2023-03-19T11:39:05.805Z,224473.00
2023-03-19T11:45:36.021Z,224188.00
2023-03-19T11:51:51.379Z,223948.00
2023-03-19T11:58:19.885Z,223882.00
2023-03-19T12:04:49.525Z,223927.00
2023-03-19T12:10:57.651Z,224533.00
2023-03-19T12:17:20.913Z,224465.00
2023-03-19T12:23:45.147Z,224355.00
2023-03-19T12:29:52.656Z,223485.00
2023-03-19T12:35:57.068Z,223755.00
2023-03-19T12:42:02.077Z,222045.00
2023-03-19T12:48:36.533Z,221565.00
2023-03-19T12:54:46.312Z,221470.00
2023-03-19T13:01:09.346Z,220479.00
2023-03-19T13:07:35.096Z,221003.00
2023-03-19T13:13:57.612Z,221142.00
2023-03-19T13:20:06.113Z,221090.00
2023-03-19T13:26:13.008Z,221917.00
2023-03-19T13:32:29.981Z,221500.00
2023-03-19T13:38:40.030Z,221185.00
2023-03-19T13:44:49.834Z,220368.00
2023-03-19T13:51:01.443Z,220392.00
2023-03-19T13:57:15.388Z,220924.00
2023-03-19T14:03:27.079Z,219919.00
2023-03-19T14:10:05.191Z,219436.00
2023-03-19T14:16:32.296Z,219054.00
2023-03-19T14:22:40.574Z,218854.00
2023-03-19T14:28:51.838Z,218595.00
2023-03-19T14:34:55.726Z,218531.00
2023-03-19T14:41:01.353Z,218359.00
2023-03-19T14:47:19.219Z,218174.00
2023-03-19T14:53:37.655Z,217979.00
2023-03-19T14:59:40.852Z,217965.00
2023-03-19T15:05:43.460Z,217875.00
2023-03-19T15:11:56.147Z,217744.00
2023-03-19T15:18:10.172Z,217610.00
2023-03-19T15:24:17.551Z,217524.00
2023-03-19T15:30:24.856Z,217433.00
2023-03-19T15:36:33.737Z,217334.00
2023-03-19T15:42:39.838Z,217241.00
2023-03-19T15:48:42.546Z,217143.00
2023-03-19T15:54:45.289Z,217038.00
2023-03-19T16:00:48.010Z,217000.00
2023-03-19T16:06:51.044Z,216901.00
2023-03-19T16:12:53.957Z,216846.00
2023-03-19T16:18:57.036Z,216774.00
2023-03-19T16:25:00.247Z,216711.00
2023-03-19T16:31:03.112Z,216653.00
2023-03-19T16:37:34.345Z,216577.00
2023-03-19T16:43:37.693Z,216472.00
2023-03-19T16:49:40.030Z,216400.00
2023-03-19T16:55:42.965Z,216345.00
2023-03-19T17:01:45.099Z,216274.00
2023-03-19T17:07:47.498Z,216191.00
2023-03-19T17:13:49.844Z,216163.00
2023-03-19T17:19:52.220Z,216086.00
2023-03-19T17:25:54.998Z,216015.00
2023-03-19T17:31:58.324Z,216029.00
2023-03-19T17:38:01.198Z,215965.00
2023-03-19T17:44:06.349Z,215888.00
2023-03-19T17:50:17.287Z,215833.00
2023-03-19T17:56:22.671Z,215769.00
2023-03-19T18:02:31.733Z,215714.00
2023-03-19T18:08:34.595Z,215678.00
2023-03-19T18:14:37.000Z,215684.00
2023-03-19T18:20:40.645Z,215596.00
2023-03-19T18:26:43.113Z,215526.00
2023-03-19T18:32:48.782Z,215463.00
2023-03-19T18:38:51.206Z,215405.00
2023-03-19T18:44:53.732Z,215315.00
2023-03-19T18:50:56.160Z,215253.00
2023-03-19T18:57:02.658Z,215239.00
2023-03-19T19:03:05.806Z,215261.00
2023-03-19T19:09:08.565Z,215217.00
2023-03-19T19:15:30.832Z,215154.00
2023-03-19T19:21:33.285Z,215052.00
2023-03-19T19:27:35.927Z,214940.00
2023-03-19T19:33:38.286Z,214875.00
2023-03-19T19:39:41.186Z,214841.00
2023-03-19T19:45:44.919Z,214808.00
2023-03-19T19:51:47.289Z,214745.00
2023-03-19T19:57:50.346Z,214717.00
2023-03-19T20:03:53.217Z,214681.00
2023-03-19T20:09:55.582Z,214584.00
2023-03-19T20:15:59.253Z,214488.00
2023-03-19T20:22:02.119Z,214432.00
2023-03-19T20:28:05.045Z,214376.00
2023-03-19T20:34:22.547Z,214329.00
2023-03-19T20:40:41.079Z,214296.00
2023-03-19T20:46:43.486Z,214321.00
2023-03-19T20:52:46.727Z,214244.00
2023-03-19T20:58:49.411Z,214183.00
2023-03-19T21:04:52.041Z,214113.00
2023-03-19T21:10:54.709Z,214058.00
2023-03-19T21:16:57.315Z,214003.00
2023-03-19T21:23:21.675Z,213934.00
2023-03-19T21:29:33.619Z,213956.00
2023-03-19T21:35:36.423Z,213922.00
2023-03-19T21:41:38.855Z,213852.00
2023-03-19T21:47:41.339Z,213797.00
2023-03-19T21:53:46.000Z,213770.00
2023-03-19T21:59:48.539Z,213686.00
2023-03-19T22:05:51.647Z,213625.00
2023-03-19T22:11:54.149Z,213561.00
2023-03-19T22:17:56.321Z,213542.00
2023-03-19T22:23:58.940Z,213569.00
2023-03-19T22:30:02.200Z,213509.00
2023-03-19T22:36:04.820Z,213467.00
2023-03-19T22:42:09.122Z,213517.00
2023-03-19T22:48:16.073Z,213575.00
2023-03-19T22:54:18.115Z,213547.00
2023-03-19T23:00:24.295Z,213509.00
2023-03-19T23:06:30.826Z,213489.00
2023-03-19T23:12:33.239Z,213404.00
2023-03-19T23:18:37.377Z,213308.00
2023-03-19T23:24:39.668Z,213212.00
2023-03-19T23:30:41.876Z,213137.00
2023-03-19T23:36:44.670Z,213075.00
2023-03-19T23:42:53.092Z,213019.00
2023-03-19T23:48:56.854Z,212945.00
2023-03-19T23:54:59.159Z,212897.00
